Time;durP1;ratioP1;P1;durP2;ratioP2;P2;SDS_P1;SDS_P2;PMS_P1;PMS_P2;Temp;Humidity;BMP_temperature;BMP_pressure;BME280_temperature;BME280_humidity;BME280_pressure;Samples;Min_cycle;Max_cycle;Signal;HPM_P1;HPM_P2
2022/08/25 00:01:19;;;;;;;14.55;9.23;;;23.10;99.90;;;;;;4994763;28;20080;-79
2022/08/25 00:03:46;;;;;;;19.15;10.25;;;23.10;99.90;;;;;;4995471;28;20030;-78
2022/08/25 00:06:12;;;;;;;14.70;8.50;;;23.10;99.90;;;;;;4994849;28;20026;-78
2022/08/25 00:08:38;;;;;;;15.02;8.48;;;23.10;99.90;;;;;;4994987;28;20038;-78
2022/08/25 00:11:10;;;;;;;17.63;9.40;;;23.10;99.90;;;;;;4994402;28;20356;-78
2022/08/25 00:13:37;;;;;;;16.90;10.07;;;23.10;99.90;;;;;;4995186;28;20037;-78
2022/08/25 00:16:03;;;;;;;22.73;9.85;;;23.00;99.90;;;;;;4994163;28;20373;-77
2022/08/25 00:18:29;;;;;;;25.05;10.00;;;23.10;99.90;;;;;;4994920;28;20052;-78
2022/08/25 00:20:54;;;;;;;15.70;8.45;;;23.00;99.90;;;;;;4999172;28;20046;-79
2022/08/25 00:23:20;;;;;;;21.98;9.65;;;23.10;99.90;;;;;;5013870;28;20029;-78
2022/08/25 00:25:46;;;;;;;17.15;8.70;;;23.10;99.90;;;;;;5014357;28;20454;-78
2022/08/25 00:28:12;;;;;;;16.13;8.30;;;23.10;99.90;;;;;;5013684;28;20030;-78
2022/08/25 00:30:38;;;;;;;20.60;9.65;;;23.00;99.90;;;;;;5014287;28;20348;-78
2022/08/25 00:33:04;;;;;;;17.40;9.13;;;23.00;99.90;;;;;;5013727;28;20036;-78
2022/08/25 00:35:30;;;;;;;12.35;8.35;;;23.00;99.90;;;;;;5014132;28;20026;-78
2022/08/25 00:37:56;;;;;;;19.95;9.75;;;22.90;99.90;;;;;;5014128;28;20506;-78
2022/08/25 00:40:24;;;;;;;18.33;9.55;;;23.00;99.90;;;;;;4995492;28;20868;-78
2022/08/25 00:42:49;;;;;;;19.77;9.02;;;23.00;99.90;;;;;;4994541;28;20038;-78
2022/08/25 00:45:15;;;;;;;14.50;8.65;;;23.00;99.90;;;;;;4993625;28;20026;-78
2022/08/25 00:47:41;;;;;;;14.82;8.93;;;23.00;99.90;;;;;;4994131;28;20066;-78
2022/08/25 00:50:09;;;;;;;14.70;8.75;;;22.90;99.90;;;;;;4992912;28;20037;-78
2022/08/25 00:52:42;;;;;;;19.83;8.65;;;22.90;99.90;;;;;;4993970;28;20385;-77
2022/08/25 00:55:16;;;;;;;20.08;9.35;;;22.90;99.90;;;;;;4993438;28;20022;-77
2022/08/25 00:57:46;;;;;;;16.92;9.05;;;22.90;99.90;;;;;;4994129;28;20070;-78
2022/08/25 01:00:23;;;;;;;14.67;7.83;;;22.90;99.90;;;;;;4993936;28;20022;-78
2022/08/25 01:02:49;;;;;;;12.60;8.25;;;22.90;99.90;;;;;;4994125;28;20049;-78
2022/08/25 01:05:16;;;;;;;15.60;9.93;;;22.90;99.90;;;;;;4993455;28;20460;-78
2022/08/25 01:07:43;;;;;;;14.25;8.88;;;22.90;99.90;;;;;;4993856;28;20061;-78
2022/08/25 01:10:10;;;;;;;13.27;8.75;;;22.90;99.90;;;;;;4993340;28;20109;-77
2022/08/25 01:12:36;;;;;;;13.77;8.55;;;22.80;99.90;;;;;;4993855;28;20106;-78
2022/08/25 01:15:06;;;;;;;14.95;9.23;;;22.80;99.90;;;;;;4993765;28;20383;-78
2022/08/25 01:17:52;;;;;;;15.52;9.05;;;22.80;99.90;;;;;;4993409;28;20125;-78
2022/08/25 01:20:21;;;;;;;15.57;9.10;;;22.80;99.90;;;;;;4993166;28;20109;-78
2022/08/25 01:22:49;;;;;;;15.07;8.70;;;22.80;99.90;;;;;;4993798;28;20109;-78
2022/08/25 01:25:51;;;;;;;18.55;10.27;;;22.80;99.90;;;;;;4992641;28;20435;-78
2022/08/25 01:28:19;;;;;;;21.80;10.95;;;22.80;99.90;;;;;;4992824;28;20034;-78
2022/08/25 01:30:45;;;;;;;17.25;9.77;;;22.80;99.90;;;;;;4993494;28;20049;-78
2022/08/25 01:33:11;;;;;;;17.25;8.98;;;22.80;99.90;;;;;;4992971;28;20460;-77
2022/08/25 01:35:38;;;;;;;19.55;9.55;;;22.80;99.90;;;;;;4993758;28;20037;-78
2022/08/25 01:38:05;;;;;;;22.38;9.82;;;22.80;99.90;;;;;;4993231;28;20038;-78
2022/08/25 01:40:31;;;;;;;13.05;8.55;;;22.80;99.90;;;;;;4993054;28;20030;-78
2022/08/25 01:43:06;;;;;;;13.48;8.85;;;22.70;99.90;;;;;;4993249;28;20050;-78
2022/08/25 01:45:37;;;;;;;16.25;9.13;;;22.80;99.90;;;;;;4992798;28;20525;-78
2022/08/25 01:48:04;;;;;;;19.33;9.75;;;22.80;99.90;;;;;;4993346;28;20037;-78
2022/08/25 01:50:30;;;;;;;18.85;9.15;;;22.70;99.90;;;;;;4992527;28;20471;-78
2022/08/25 01:53:02;;;;;;;15.85;9.85;;;22.80;99.90;;;;;;4995738;28;20068;-78
2022/08/25 01:55:28;;;;;;;18.25;9.68;;;22.80;99.90;;;;;;4992715;28;20026;-78
2022/08/25 01:57:54;;;;;;;16.10;9.20;;;22.70;99.90;;;;;;4992824;28;20042;-78
2022/08/25 02:00:22;;;;;;;15.60;9.02;;;22.70;99.90;;;;;;4992868;28;20376;-78
2022/08/25 02:02:47;;;;;;;13.73;8.77;;;22.70;99.90;;;;;;4992952;28;20037;-78
2022/08/25 02:05:15;;;;;;;14.27;9.32;;;22.70;99.90;;;;;;4992392;28;20034;-78
2022/08/25 02:07:42;;;;;;;14.25;8.98;;;22.70;99.90;;;;;;4992983;28;20045;-78
2022/08/25 02:10:10;;;;;;;17.60;9.32;;;22.70;99.90;;;;;;4992869;28;20038;-78
2022/08/25 02:12:36;;;;;;;21.13;8.68;;;22.70;99.90;;;;;;4992963;28;20038;-78
2022/08/25 02:15:04;;;;;;;16.50;9.85;;;22.70;99.90;;;;;;4992758;28;20031;-78
2022/08/25 02:17:30;;;;;;;16.10;9.25;;;22.70;99.90;;;;;;4992373;28;20082;-78
2022/08/25 02:19:56;;;;;;;16.20;8.82;;;22.70;99.90;;;;;;4992947;28;20372;-78
2022/08/25 02:22:22;;;;;;;13.63;8.38;;;22.70;99.90;;;;;;4992466;28;20057;-78
2022/08/25 02:24:49;;;;;;;15.45;8.48;;;22.70;99.90;;;;;;4992934;28;20089;-78
2022/08/25 02:27:14;;;;;;;15.88;9.35;;;22.70;99.90;;;;;;4992343;28;20065;-78
2022/08/25 02:29:40;;;;;;;21.52;8.35;;;22.70;99.90;;;;;;4997219;28;20065;-77
2022/08/25 02:32:06;;;;;;;16.83;9.23;;;22.70;99.90;;;;;;5012491;28;20469;-78
2022/08/25 02:34:32;;;;;;;15.48;9.00;;;22.70;99.90;;;;;;5011620;28;20824;-78
2022/08/25 02:36:58;;;;;;;15.95;9.10;;;22.70;99.90;;;;;;5012362;28;20061;-78
2022/08/25 02:39:23;;;;;;;14.65;9.10;;;22.70;99.90;;;;;;5011805;28;20034;-79
2022/08/25 02:41:50;;;;;;;20.35;9.30;;;22.70;99.90;;;;;;5012031;28;20101;-78
2022/08/25 02:44:15;;;;;;;18.23;9.25;;;22.70;99.90;;;;;;5011493;28;20497;-78
2022/08/25 02:46:41;;;;;;;19.58;9.45;;;22.70;99.90;;;;;;5012362;28;20101;-78
2022/08/25 02:49:07;;;;;;;11.63;8.23;;;22.70;99.90;;;;;;5012293;28;20120;-78
2022/08/25 02:51:33;;;;;;;13.55;9.00;;;22.70;99.90;;;;;;5011746;28;20030;-78
2022/08/25 02:54:01;;;;;;;14.27;8.73;;;22.70;99.90;;;;;;5011849;28;20026;-78
2022/08/25 02:56:28;;;;;;;13.38;8.43;;;22.70;99.90;;;;;;5004439;28;20030;-78
2022/08/25 02:58:54;;;;;;;14.30;8.63;;;22.70;99.90;;;;;;5002685;28;20038;-77
2022/08/25 03:01:21;;;;;;;18.20;8.90;;;22.70;99.90;;;;;;4982602;28;20482;-78
2022/08/25 03:03:47;;;;;;;18.67;9.15;;;22.70;99.90;;;;;;4999171;28;20027;-78
2022/08/25 03:06:16;;;;;;;15.80;8.55;;;22.70;99.90;;;;;;5000534;28;20030;-77
2022/08/25 03:08:43;;;;;;;14.77;8.95;;;22.70;99.90;;;;;;5000213;28;20034;-78
2022/08/25 03:11:09;;;;;;;15.20;9.02;;;22.70;99.90;;;;;;4993738;28;20030;-78
2022/08/25 03:13:36;;;;;;;11.82;8.32;;;22.70;99.90;;;;;;5013922;28;20030;-77
2022/08/25 03:16:04;;;;;;;14.63;9.00;;;22.70;99.90;;;;;;5008397;28;20014;-77
2022/08/25 03:18:30;;;;;;;15.23;10.05;;;22.70;99.90;;;;;;5001215;28;20053;-79
2022/08/25 03:20:56;;;;;;;15.25;9.60;;;22.70;99.90;;;;;;5005189;28;20491;-79
2022/08/25 03:23:22;;;;;;;13.52;8.77;;;22.70;99.90;;;;;;4998646;28;20026;-78
2022/08/25 03:28:32;;;;;;;19.50;9.55;;;22.70;99.90;;;;;;5004777;28;20108;-78
2022/08/25 03:31:01;;;;;;;14.48;8.43;;;22.70;99.90;;;;;;5004328;28;20057;-78
2022/08/25 03:33:29;;;;;;;13.43;8.48;;;22.70;99.90;;;;;;5010112;28;20036;-78
2022/08/25 03:35:55;;;;;;;11.85;8.85;;;22.70;99.90;;;;;;4998738;28;20089;-78
2022/08/25 03:38:22;;;;;;;12.57;8.48;;;22.60;99.90;;;;;;5013243;28;20029;-79
2022/08/25 03:40:48;;;;;;;12.65;8.30;;;22.70;99.90;;;;;;5000502;28;20026;-78
2022/08/25 03:43:14;;;;;;;15.50;8.75;;;22.60;99.90;;;;;;5006617;28;20081;-77
2022/08/25 03:45:41;;;;;;;14.77;8.65;;;22.60;99.90;;;;;;5008678;28;20034;-78
2022/08/25 03:48:07;;;;;;;12.40;9.18;;;22.70;99.90;;;;;;4999171;28;20085;-77
2022/08/25 03:50:33;;;;;;;12.05;8.75;;;22.60;99.90;;;;;;5010767;28;20418;-75
2022/08/25 03:52:59;;;;;;;13.88;8.55;;;22.70;99.90;;;;;;5001537;28;20018;-77
2022/08/25 03:55:25;;;;;;;20.85;9.40;;;22.70;99.90;;;;;;5011169;28;20348;-76
2022/08/25 03:57:52;;;;;;;13.30;8.63;;;22.60;99.90;;;;;;5001211;28;20045;-75
2022/08/25 04:00:20;;;;;;;10.95;8.00;;;22.60;99.90;;;;;;4995547;28;20031;-76
2022/08/25 04:02:46;;;;;;;15.38;9.35;;;22.60;99.90;;;;;;5009767;28;20027;-76
2022/08/25 04:05:12;;;;;;;16.38;9.65;;;22.60;99.90;;;;;;5001424;28;20546;-75
2022/08/25 04:07:38;;;;;;;15.13;9.10;;;22.60;99.90;;;;;;5006344;28;20109;-73
2022/08/25 04:10:08;;;;;;;14.20;9.98;;;22.60;99.90;;;;;;4999553;28;20105;-73
2022/08/25 04:12:34;;;;;;;17.77;10.73;;;22.60;99.90;;;;;;5010597;28;20057;-74
2022/08/25 04:15:01;;;;;;;15.82;9.00;;;22.50;99.90;;;;;;4998831;28;20025;-72
2022/08/25 04:17:26;;;;;;;18.70;9.93;;;22.60;99.90;;;;;;5005287;28;20029;-71
2022/08/25 04:19:52;;;;;;;15.05;9.85;;;22.50;99.90;;;;;;5000276;28;20458;-70
2022/08/25 04:22:18;;;;;;;18.08;10.38;;;22.50;99.90;;;;;;5011521;28;20458;-75
2022/08/25 04:24:44;;;;;;;15.45;9.32;;;22.50;99.90;;;;;;5008845;28;20081;-71
2022/08/25 04:27:10;;;;;;;12.35;8.77;;;22.50;99.90;;;;;;5005042;28;20032;-72
2022/08/25 04:29:35;;;;;;;17.45;9.65;;;22.50;99.90;;;;;;5002140;28;20478;-74
2022/08/25 04:32:01;;;;;;;15.70;9.30;;;22.50;99.90;;;;;;5009829;28;20026;-74
2022/08/25 04:34:27;;;;;;;18.77;9.98;;;22.50;99.90;;;;;;4997152;28;20034;-74
2022/08/25 04:36:53;;;;;;;15.05;9.68;;;22.50;99.90;;;;;;5008123;28;20037;-75
2022/08/25 04:39:20;;;;;;;19.15;10.43;;;22.50;99.90;;;;;;5003160;28;20124;-73
2022/08/25 04:41:47;;;;;;;17.10;10.35;;;22.60;99.90;;;;;;5001138;28;20100;-76
2022/08/25 04:44:12;;;;;;;14.65;9.07;;;22.50;99.90;;;;;;5010418;28;20033;-71
2022/08/25 04:46:38;;;;;;;12.45;8.88;;;22.60;99.90;;;;;;4997546;28;20030;-73
2022/08/25 04:49:04;;;;;;;16.52;9.25;;;22.60;99.90;;;;;;5001919;28;20498;-71
2022/08/25 04:51:32;;;;;;;15.52;9.48;;;22.60;99.90;;;;;;5002388;28;20033;-72
2022/08/25 04:54:00;;;;;;;17.10;9.48;;;22.60;99.90;;;;;;5001845;28;20085;-72
2022/08/25 04:56:26;;;;;;;13.73;9.20;;;22.60;99.90;;;;;;5013024;28;20030;-73
2022/08/25 04:58:53;;;;;;;17.48;10.55;;;22.60;99.90;;;;;;5013395;28;20064;-72
2022/08/25 05:01:22;;;;;;;13.65;9.07;;;22.60;99.90;;;;;;5013663;28;20034;-68
2022/08/25 05:03:58;;;;;;;20.35;10.43;;;22.70;99.90;;;;;;5013157;28;20394;-74
2022/08/25 05:06:24;;;;;;;17.30;10.20;;;22.70;99.90;;;;;;5012971;28;20030;-79
2022/08/25 05:08:50;;;;;;;15.85;9.68;;;22.70;99.90;;;;;;5010570;28;20054;-80
2022/08/25 05:11:17;;;;;;;16.10;10.23;;;22.70;99.90;;;;;;4993086;28;20031;-77
2022/08/25 05:13:44;;;;;;;17.73;9.77;;;22.70;99.90;;;;;;4992735;28;20475;-77
2022/08/25 05:16:10;;;;;;;16.50;10.27;;;22.70;99.90;;;;;;4993074;28;20447;-75
2022/08/25 05:18:36;;;;;;;19.73;10.60;;;22.70;99.90;;;;;;4993417;28;20041;-76
2022/08/25 05:21:05;;;;;;;14.63;10.68;;;22.70;99.90;;;;;;4994057;28;20129;-75
2022/08/25 05:23:31;;;;;;;15.55;10.57;;;22.70;99.90;;;;;;4993471;28;20030;-75
2022/08/25 05:26:02;;;;;;;15.52;9.93;;;22.70;99.90;;;;;;4993807;28;20077;-75
2022/08/25 05:28:28;;;;;;;16.95;10.30;;;22.70;99.90;;;;;;4993166;28;20037;-74
2022/08/25 05:30:58;;;;;;;18.48;10.63;;;22.70;99.90;;;;;;4993551;28;20030;-75
2022/08/25 05:33:24;;;;;;;16.20;10.27;;;22.70;99.90;;;;;;4993208;28;20041;-75
2022/08/25 05:35:50;;;;;;;18.50;9.98;;;22.70;99.90;;;;;;4993418;28;20387;-75
2022/08/25 05:38:16;;;;;;;19.98;9.80;;;22.70;99.90;;;;;;4993608;28;20077;-76
2022/08/25 05:40:42;;;;;;;16.98;9.45;;;22.70;99.90;;;;;;4992843;28;20053;-76
2022/08/25 05:43:08;;;;;;;13.95;10.07;;;22.70;99.90;;;;;;4993086;28;20022;-76
2022/08/25 05:45:34;;;;;;;15.88;10.05;;;22.70;99.90;;;;;;4992709;28;20105;-76
2022/08/25 05:48:00;;;;;;;16.45;10.95;;;22.70;99.90;;;;;;4993248;28;20049;-76
2022/08/25 05:50:26;;;;;;;15.48;10.27;;;22.70;99.90;;;;;;4992731;28;20031;-76
2022/08/25 05:52:52;;;;;;;19.42;10.05;;;22.60;99.90;;;;;;4993287;28;20480;-75
2022/08/25 05:55:17;;;;;;;16.20;10.27;;;22.60;99.90;;;;;;4993316;28;20141;-75
2022/08/25 05:57:43;;;;;;;17.92;10.00;;;22.60;99.90;;;;;;4993065;28;20403;-75
2022/08/25 06:00:09;;;;;;;20.10;10.32;;;22.60;99.90;;;;;;4994848;28;20030;-77
2022/08/25 06:02:40;;;;;;;20.38;10.23;;;22.50;99.90;;;;;;4992771;28;20102;-75
2022/08/25 06:05:07;;;;;;;;;;;22.60;99.90;;;;;;4993754;28;20030;-76
2022/08/25 06:07:32;;;;;;;16.63;9.73;;;22.60;99.90;;;;;;4992737;28;20040;-76
2022/08/25 06:09:58;;;;;;;16.15;10.38;;;22.60;99.90;;;;;;4993139;28;20101;-76
2022/08/25 06:12:24;;;;;;;19.60;10.13;;;22.60;99.90;;;;;;4992767;28;20419;-77
2022/08/25 06:14:50;;;;;;;17.40;9.93;;;22.60;99.90;;;;;;4993114;28;20168;-76
2022/08/25 06:17:16;;;;;;;20.58;10.55;;;22.60;99.90;;;;;;4992912;28;20030;-75
2022/08/25 06:19:42;;;;;;;20.05;10.18;;;22.60;99.90;;;;;;4992287;28;20072;-76
2022/08/25 06:22:08;;;;;;;19.75;10.18;;;22.60;99.90;;;;;;4992913;28;20033;-76
2022/08/25 06:24:33;;;;;;;16.38;9.63;;;22.60;99.90;;;;;;4992584;28;20386;-76
2022/08/25 06:27:00;;;;;;;15.43;9.55;;;22.60;99.90;;;;;;4992785;28;20464;-76
2022/08/25 06:29:25;;;;;;;21.88;9.75;;;22.60;99.90;;;;;;4992810;28;20041;-77
2022/08/25 06:31:51;;;;;;;14.35;9.63;;;22.60;99.90;;;;;;4992552;28;20026;-76
2022/08/25 06:34:18;;;;;;;18.20;10.45;;;22.60;99.90;;;;;;4993159;28;20133;-75
2022/08/25 06:36:44;;;;;;;16.58;10.52;;;22.60;99.90;;;;;;5011570;28;20459;-76
2022/08/25 06:39:10;;;;;;;18.85;10.05;;;22.60;99.90;;;;;;5012473;28;20034;-76
2022/08/25 06:41:36;;;;;;;17.92;10.25;;;22.60;99.90;;;;;;5012029;28;20461;-76
2022/08/25 06:44:02;;;;;;;18.35;10.95;;;22.60;99.90;;;;;;5012579;28;20104;-75
2022/08/25 06:46:29;;;;;;;23.38;12.55;;;22.60;99.90;;;;;;5012026;28;20037;-75
2022/08/25 06:48:56;;;;;;;16.02;10.93;;;22.60;99.90;;;;;;5015421;28;20037;-74
2022/08/25 06:51:23;;;;;;;14.63;10.38;;;22.70;99.90;;;;;;5016880;28;20026;-73
2022/08/25 06:53:49;;;;;;;20.67;11.52;;;22.70;99.90;;;;;;5016420;28;20022;-74
2022/08/25 06:56:16;;;;;;;22.67;12.25;;;22.70;99.90;;;;;;5016882;28;20164;-74
2022/08/25 06:58:42;;;;;;;27.05;12.38;;;22.70;99.90;;;;;;5016224;28;20597;-76
2022/08/25 07:01:28;;;;;;;21.45;11.80;;;22.70;99.90;;;;;;5016217;28;20077;-76
2022/08/25 07:03:56;;;;;;;17.60;10.95;;;22.70;99.90;;;;;;4997865;28;20042;-75
2022/08/25 07:06:22;;;;;;;19.30;10.20;;;22.70;99.90;;;;;;5015991;28;20033;-76
2022/08/25 07:08:48;;;;;;;16.23;10.95;;;22.70;99.90;;;;;;5015193;28;20360;-76
2022/08/25 07:11:15;;;;;;;16.65;10.02;;;22.80;99.90;;;;;;5015888;28;20109;-76
2022/08/25 07:13:41;;;;;;;20.80;11.60;;;22.80;99.90;;;;;;5015498;28;20036;-76
2022/08/25 07:16:07;;;;;;;16.52;10.98;;;22.80;99.90;;;;;;5015856;28;20026;-75
2022/08/25 07:18:33;;;;;;;21.10;10.55;;;22.80;99.90;;;;;;5015396;28;20034;-76
2022/08/25 07:20:59;;;;;;;20.95;10.68;;;22.80;99.90;;;;;;5015163;28;20060;-75
2022/08/25 07:23:25;;;;;;;17.88;10.43;;;22.90;99.90;;;;;;5015484;28;20030;-74
2022/08/25 07:25:52;;;;;;;17.35;10.75;;;22.90;99.90;;;;;;5014987;28;20434;-74
2022/08/25 07:28:18;;;;;;;22.33;11.52;;;22.90;99.90;;;;;;5015020;28;20076;-76
2022/08/25 07:30:44;;;;;;;16.60;10.57;;;23.00;99.90;;;;;;5015221;28;20053;-75
2022/08/25 07:33:10;;;;;;;20.00;11.00;;;23.10;99.90;;;;;;5015540;28;20064;-75
2022/08/25 07:35:36;;;;;;;20.00;11.82;;;23.10;99.90;;;;;;5014953;28;20030;-76
2022/08/25 07:38:03;;;;;;;18.73;11.63;;;23.10;99.90;;;;;;5015323;28;20038;-75
2022/08/25 07:40:31;;;;;;;18.95;11.65;;;23.10;99.90;;;;;;5015376;28;20033;-75
2022/08/25 07:43:00;;;;;;;20.88;11.13;;;23.10;99.90;;;;;;5014845;28;20470;-75
2022/08/25 07:45:29;;;;;;;20.23;12.50;;;23.20;99.90;;;;;;5015235;28;20030;-75
2022/08/25 07:47:56;;;;;;;20.15;11.50;;;23.20;99.90;;;;;;5014810;28;20064;-75
2022/08/25 07:50:22;;;;;;;17.30;10.68;;;23.20;99.90;;;;;;5015182;28;20030;-75
2022/08/25 07:52:48;;;;;;;18.10;11.38;;;23.20;99.90;;;;;;5014862;28;20026;-75
2022/08/25 07:55:14;;;;;;;21.80;11.73;;;23.20;99.90;;;;;;5014803;28;20034;-76
2022/08/25 07:57:41;;;;;;;18.48;10.95;;;23.20;99.90;;;;;;5014151;28;20033;-76
2022/08/25 08:00:09;;;;;;;17.33;10.98;;;23.20;99.90;;;;;;5010327;28;20033;-74
2022/08/25 08:02:37;;;;;;;18.40;11.55;;;23.30;99.90;;;;;;5014565;28;20036;-76
2022/08/25 08:05:03;;;;;;;24.25;11.18;;;23.40;99.90;;;;;;5014994;28;20021;-74
2022/08/25 08:07:30;;;;;;;19.88;11.55;;;23.40;99.90;;;;;;5014371;28;20037;-74
2022/08/25 08:09:56;;;;;;;20.58;11.57;;;23.50;99.90;;;;;;5014151;28;20403;-74
2022/08/25 08:12:23;;;;;;;17.30;10.85;;;23.50;99.90;;;;;;5014718;28;20026;-76
2022/08/25 08:14:49;;;;;;;19.73;11.43;;;23.60;99.90;;;;;;5013799;28;20459;-75
2022/08/25 08:17:15;;;;;;;21.42;11.50;;;23.60;99.90;;;;;;5014658;28;20061;-76
2022/08/25 08:19:41;;;;;;;20.52;11.75;;;23.60;99.90;;;;;;5013499;28;20078;-76
2022/08/25 08:22:07;;;;;;;17.88;11.32;;;23.70;99.90;;;;;;5014246;28;20034;-75
2022/08/25 08:24:37;;;;;;;18.70;11.02;;;23.80;99.90;;;;;;5014427;28;20455;-76
2022/08/25 08:27:05;;;;;;;30.90;11.75;;;24.00;99.90;;;;;;5012498;28;20382;-76
2022/08/25 08:29:31;;;;;;;18.48;10.52;;;24.30;99.90;;;;;;5014430;28;20041;-76
2022/08/25 08:31:57;;;;;;;17.33;11.40;;;24.90;99.90;;;;;;5013838;28;20340;-75
2022/08/25 08:34:23;;;;;;;18.85;10.40;;;25.80;99.90;;;;;;5014312;28;20026;-75
2022/08/25 08:36:49;;;;;;;17.50;10.23;;;26.80;99.90;;;;;;5013888;28;20081;-75
2022/08/25 08:39:14;;;;;;;19.55;10.60;;;26.80;99.90;;;;;;5014005;28;20034;-76
2022/08/25 08:44:40;;;;;;;19.05;10.70;;;26.90;95.90;;;;;;5013845;28;20037;-76
2022/08/25 08:47:11;;;;;;;18.27;11.23;;;26.80;96.80;;;;;;5014159;28;20022;-75
2022/08/25 08:49:55;;;;;;;19.48;10.48;;;26.80;96.20;;;;;;5013257;28;20025;-75
2022/08/25 08:52:47;;;;;;;16.60;9.50;;;26.70;96.80;;;;;;5014168;28;20022;-75
2022/08/25 08:55:32;;;;;;;19.30;9.77;;;26.60;96.30;;;;;;4996365;28;20443;-75
2022/08/25 08:58:03;;;;;;;15.35;10.10;;;26.50;96.30;;;;;;5013178;28;20050;-75
2022/08/25 09:00:31;;;;;;;19.50;10.52;;;26.30;95.90;;;;;;5013720;28;20026;-75
2022/08/25 09:03:11;;;;;;;18.45;10.00;;;26.20;96.70;;;;;;5013114;28;20057;-75
2022/08/25 09:05:50;;;;;;;18.20;9.93;;;26.10;97.50;;;;;;5013433;28;20060;-76
2022/08/25 09:08:17;;;;;;;18.13;10.25;;;26.00;98.00;;;;;;5013882;28;20026;-74
2022/08/25 09:11:07;;;;;;;14.88;9.43;;;26.00;97.20;;;;;;5012812;28;20022;-74
2022/08/25 09:13:48;;;;;;;16.35;9.40;;;26.00;97.70;;;;;;5013636;28;20463;-75
2022/08/25 09:19:22;;;;;;;17.30;9.38;;;26.10;96.70;;;;;;5012988;28;19980;-74
2022/08/25 09:21:58;;;;;;;14.45;8.93;;;26.10;96.80;;;;;;5013134;28;20149;-74
2022/08/25 09:24:32;;;;;;;14.00;8.30;;;26.10;96.80;;;;;;5013442;28;20034;-75
2022/08/25 09:27:34;;;;;;;17.70;9.20;;;26.10;97.20;;;;;;5013121;28;20868;-74
2022/08/25 09:30:07;;;;;;;16.65;8.55;;;26.20;97.10;;;;;;5012940;28;20034;-74
2022/08/25 09:32:49;;;;;;;10.77;7.53;;;26.10;97.10;;;;;;5013260;28;20036;-75
2022/08/25 09:35:23;;;;;;;12.70;7.72;;;26.20;96.50;;;;;;5013152;28;20378;-75
2022/08/25 09:38:04;;;;;;;14.55;8.57;;;26.30;96.50;;;;;;5012577;28;20030;-76
2022/08/25 09:40:33;;;;;;;9.80;7.70;;;26.30;95.80;;;;;;5013217;28;20050;-76
2022/08/25 09:43:01;;;;;;;18.75;8.65;;;26.40;96.50;;;;;;5012493;28;20072;-76
2022/08/25 09:45:39;;;;;;;13.90;7.95;;;26.50;96.50;;;;;;5013166;28;20026;-74
2022/08/25 09:48:46;;;;;;;10.38;7.00;;;26.50;93.90;;;;;;5013237;28;20052;-74
2022/08/25 09:51:32;;;;;;;12.82;6.78;;;26.50;94.40;;;;;;4913950;29;20032;-74
2022/08/25 09:54:04;;;;;;;17.27;8.38;;;26.70;94.60;;;;;;4913707;29;20111;-74
2022/08/25 09:56:32;;;;;;;15.95;8.00;;;26.90;94.40;;;;;;4914186;29;20067;-75
2022/08/25 09:59:24;;;;;;;15.82;8.52;;;27.10;94.60;;;;;;4913551;29;20059;-75
2022/08/25 10:01:52;;;;;;;14.40;8.20;;;27.40;93.40;;;;;;4913616;29;20500;-76
2022/08/25 10:04:37;;;;;;;15.43;8.25;;;27.50;92.70;;;;;;4913678;29;20040;-76
2022/08/25 10:07:34;;;;;;;11.02;7.95;;;27.60;92.30;;;;;;4910425;29;20096;-76
2022/08/25 10:10:06;;;;;;;12.48;7.20;;;27.70;91.10;;;;;;4913655;29;20040;-76
2022/08/25 10:12:40;;;;;;;13.98;7.93;;;27.90;91.50;;;;;;4913867;29;20039;-73
2022/08/25 10:15:26;;;;;;;14.63;8.10;;;28.00;91.00;;;;;;4913480;29;20058;-76
2022/08/25 10:17:53;;;;;;;14.80;8.25;;;28.00;90.00;;;;;;4913265;29;20032;-76
2022/08/25 10:20:23;;;;;;;12.38;7.32;;;28.00;89.60;;;;;;4913348;29;20102;-76
2022/08/25 10:22:49;;;;;;;14.97;8.47;;;27.90;87.00;;;;;;4980845;28;20546;-75
2022/08/25 10:25:21;;;;;;;15.05;7.85;;;27.90;86.40;;;;;;4996924;28;20244;-75
2022/08/25 10:28:08;;;;;;;15.38;7.15;;;27.90;86.20;;;;;;4996241;28;20483;-74
2022/08/25 10:30:41;;;;;;;11.02;7.20;;;27.90;86.80;;;;;;4996701;28;20023;-74
2022/08/25 10:33:12;;;;;;;10.75;7.43;;;27.80;85.50;;;;;;4996085;28;20526;-75
2022/08/25 10:35:37;;;;;;;14.80;7.18;;;27.80;86.80;;;;;;4996507;28;20035;-74
2022/08/25 10:38:26;;;;;;;8.85;6.43;;;27.90;86.00;;;;;;4995874;28;20231;-74
2022/08/25 10:41:19;;;;;;;11.38;6.90;;;28.00;86.80;;;;;;4990725;28;20050;-76
2022/08/25 10:47:36;;;;;;;8.32;5.93;;;28.20;84.90;;;;;;4981168;28;20038;-75
2022/08/25 10:50:56;;;;;;;9.57;6.38;;;28.30;82.00;;;;;;4996551;28;20110;-75
2022/08/25 10:53:25;;;;;;;9.05;5.93;;;28.50;82.70;;;;;;4955290;29;20078;-75
2022/08/25 10:55:54;;;;;;;9.55;5.90;;;28.60;80.40;;;;;;4988219;28;20037;-76
2022/08/25 10:58:41;;;;;;;12.00;5.93;;;28.60;78.60;;;;;;4996380;28;20031;-76
2022/08/25 11:01:17;;;;;;;8.13;4.75;;;28.70;77.00;;;;;;4995960;28;20375;-75
2022/08/25 11:03:57;;;;;;;10.07;6.53;;;28.70;76.10;;;;;;4996264;28;20026;-75
2022/08/25 11:06:44;;;;;;;8.00;4.97;;;28.70;77.10;;;;;;4996391;28;20042;-75
2022/08/25 11:09:16;;;;;;;9.10;5.05;;;28.80;75.90;;;;;;4995964;28;20042;-76
2022/08/25 11:11:48;;;;;;;5.18;4.30;;;28.90;76.50;;;;;;4996232;28;20019;-75
2022/08/25 11:14:45;;;;;;;9.77;6.07;;;28.90;74.00;;;;;;4996491;28;20034;-76
2022/08/25 11:17:16;;;;;;;12.73;5.85;;;28.90;73.00;;;;;;4987718;28;20041;-75
2022/08/25 11:19:49;;;;;;;6.50;4.65;;;28.90;72.50;;;;;;5001829;28;20144;-75
2022/08/25 11:22:20;;;;;;;8.55;5.13;;;28.80;74.10;;;;;;5015560;28;20029;-75
2022/08/25 11:25:24;;;;;;;10.02;5.00;;;28.90;74.50;;;;;;5015743;28;20033;-75
2022/08/25 11:28:11;;;;;;;11.23;4.60;;;28.90;73.00;;;;;;5015124;28;20033;-74
2022/08/25 11:30:37;;;;;;;6.35;4.68;;;28.80;71.70;;;;;;5015440;28;20076;-76
2022/08/25 11:33:03;;;;;;;7.00;4.60;;;28.90;73.70;;;;;;5015092;28;20034;-76
2022/08/25 11:35:42;;;;;;;7.57;5.35;;;28.90;73.60;;;;;;5015152;28;20032;-76
2022/08/25 11:38:24;;;;;;;10.63;5.15;;;28.90;70.80;;;;;;5015230;28;20402;-76
2022/08/25 11:41:20;;;;;;;6.90;4.80;;;28.80;72.40;;;;;;5015052;28;20038;-76
2022/08/25 11:43:49;;;;;;;6.95;4.55;;;28.90;72.20;;;;;;5015371;28;20454;-76
2022/08/25 11:46:42;;;;;;;7.88;4.80;;;28.70;70.40;;;;;;5015362;28;20026;-75
2022/08/25 11:49:40;;;;;;;7.25;4.90;;;28.80;71.30;;;;;;5014685;28;20033;-74
2022/08/25 11:52:32;;;;;;;7.28;5.25;;;28.80;70.50;;;;;;5014517;28;20027;-76
2022/08/25 11:55:24;;;;;;;7.40;4.72;;;28.70;71.60;;;;;;5014648;28;20022;-74
2022/08/25 11:58:11;;;;;;;6.90;4.43;;;28.80;72.90;;;;;;5014671;28;20022;-75
2022/08/25 12:00:41;;;;;;;6.65;5.00;;;28.90;73.00;;;;;;5013306;28;20033;-76
2022/08/25 12:03:35;;;;;;;7.18;4.70;;;28.90;72.30;;;;;;5013116;28;20035;-76
2022/08/25 12:06:24;;;;;;;8.20;5.07;;;28.80;71.10;;;;;;5014208;28;20061;-76
2022/08/25 12:08:55;;;;;;;10.52;4.28;;;28.90;71.30;;;;;;5014966;28;20053;-76
2022/08/25 12:11:53;;;;;;;11.38;4.80;;;29.10;71.80;;;;;;5014796;28;20101;-76
2022/08/25 12:14:25;;;;;;;5.53;4.40;;;29.00;69.60;;;;;;5014913;28;20026;-75
2022/08/25 12:16:50;;;;;;;9.23;4.60;;;29.00;69.40;;;;;;5014390;28;20076;-77
2022/08/25 12:19:33;;;;;;;8.88;5.22;;;29.10;70.40;;;;;;5014545;28;20061;-75
2022/08/25 12:22:01;;;;;;;9.68;4.63;;;29.10;69.30;;;;;;5013605;28;20046;-76
2022/08/25 12:24:42;;;;;;;4.97;4.07;;;29.10;69.40;;;;;;5014529;28;20104;-75
2022/08/25 12:27:36;;;;;;;4.43;3.85;;;29.00;69.10;;;;;;5014016;28;20382;-76
2022/08/25 12:30:29;;;;;;;8.32;4.15;;;29.00;70.90;;;;;;5014209;28;20025;-75
2022/08/25 12:33:02;;;;;;;6.05;3.83;;;29.00;69.80;;;;;;5013919;28;20034;-77
2022/08/25 12:35:28;;;;;;;5.38;4.15;;;28.90;69.50;;;;;;5014455;28;20479;-76
2022/08/25 12:38:00;;;;;;;8.45;4.45;;;28.80;69.60;;;;;;5013888;28;20022;-77
2022/08/25 12:40:37;;;;;;;7.93;3.90;;;28.70;69.80;;;;;;5014234;28;20175;-76
2022/08/25 12:43:25;;;;;;;5.93;4.03;;;28.70;70.20;;;;;;5013693;28;20080;-76
2022/08/25 12:45:53;;;;;;;4.93;3.63;;;28.70;68.80;;;;;;5013472;28;20022;-75
2022/08/25 12:48:25;;;;;;;9.13;4.15;;;28.60;68.90;;;;;;5014198;28;20041;-77
2022/08/25 12:51:17;;;;;;;6.78;4.13;;;28.50;69.50;;;;;;5014025;28;20452;-75
2022/08/25 12:54:18;;;;;;;4.75;3.88;;;28.50;70.40;;;;;;5013870;28;20026;-74
2022/08/25 12:56:45;;;;;;;;;;;28.50;70.50;;;;;;5007383;28;20041;-74
2022/08/25 12:59:14;;;;;;;7.03;3.90;;;28.40;69.60;;;;;;5013126;28;20377;-75
2022/08/25 13:02:01;;;;;;;5.00;3.60;;;28.40;70.20;;;;;;5013726;28;20080;-75
2022/08/25 13:04:29;;;;;;;6.50;4.03;;;28.40;69.30;;;;;;5013820;28;20042;-76
2022/08/25 13:07:11;;;;;;;7.40;3.63;;;28.40;69.40;;;;;;5013344;28;20030;-74